sensor_id;sensor_type;location;lat;lon;timestamp;P1;durP1;ratioP1;P2;durP2;ratioP2
19800;SDS011;10060;48.274;12.214;2023-12-28T00:00:42;21.50;;;14.50;;
19800;SDS011;10060;48.274;12.214;2023-12-28T00:03:44;19.77;;;13.90;;
19800;SDS011;10060;48.274;12.214;2023-12-28T00:06:46;21.10;;;14.37;;
19800;SDS011;10060;48.274;12.214;2023-12-28T00:09:48;22.37;;;14.50;;
19800;SDS011;10060;48.274;12.214;2023-12-28T00:12:50;21.00;;;14.50;;
19800;SDS011;10060;48.274;12.214;2023-12-28T00:15:54;22.07;;;14.70;;
19800;SDS011;10060;48.274;12.214;2023-12-28T00:18:56;21.03;;;12.87;;
19800;SDS011;10060;48.274;12.214;2023-12-28T00:21:58;13.43;;;10.03;;
19800;SDS011;10060;48.274;12.214;2023-12-28T00:25:00;17.27;;;11.70;;
19800;SDS011;10060;48.274;12.214;2023-12-28T00:28:03;19.73;;;13.40;;
19800;SDS011;10060;48.274;12.214;2023-12-28T00:31:07;20.07;;;14.13;;
19800;SDS011;10060;48.274;12.214;2023-12-28T00:34:11;21.30;;;14.67;;
19800;SDS011;10060;48.274;12.214;2023-12-28T00:37:13;18.63;;;13.50;;
19800;SDS011;10060;48.274;12.214;2023-12-28T00:40:15;15.30;;;11.23;;
19800;SDS011;10060;48.274;12.214;2023-12-28T00:43:17;15.30;;;11.60;;
19800;SDS011;10060;48.274;12.214;2023-12-28T00:46:20;17.37;;;11.90;;
19800;SDS011;10060;48.274;12.214;2023-12-28T00:49:22;16.33;;;12.27;;
19800;SDS011;10060;48.274;12.214;2023-12-28T00:52:24;17.20;;;10.97;;
19800;SDS011;10060;48.274;12.214;2023-12-28T00:55:26;17.10;;;12.27;;
19800;SDS011;10060;48.274;12.214;2023-12-28T00:58:29;18.37;;;12.10;;
19800;SDS011;10060;48.274;12.214;2023-12-28T01:01:32;15.83;;;11.30;;
19800;SDS011;10060;48.274;12.214;2023-12-28T01:04:34;16.20;;;10.10;;
19800;SDS011;10060;48.274;12.214;2023-12-28T01:07:37;18.47;;;11.17;;
19800;SDS011;10060;48.274;12.214;2023-12-28T01:10:39;20.20;;;12.73;;
19800;SDS011;10060;48.274;12.214;2023-12-28T01:13:41;18.53;;;13.00;;
19800;SDS011;10060;48.274;12.214;2023-12-28T01:16:44;17.93;;;12.30;;
19800;SDS011;10060;48.274;12.214;2023-12-28T01:19:46;17.60;;;12.33;;
19800;SDS011;10060;48.274;12.214;2023-12-28T01:22:48;17.77;;;11.27;;
19800;SDS011;10060;48.274;12.214;2023-12-28T01:25:50;17.80;;;11.50;;
19800;SDS011;10060;48.274;12.214;2023-12-28T01:28:52;14.33;;;10.47;;
19800;SDS011;10060;48.274;12.214;2023-12-28T01:31:56;13.40;;;9.03;;
19800;SDS011;10060;48.274;12.214;2023-12-28T01:34:58;15.67;;;9.50;;
19800;SDS011;10060;48.274;12.214;2023-12-28T01:38:00;14.57;;;9.47;;
19800;SDS011;10060;48.274;12.214;2023-12-28T01:41:03;15.20;;;10.00;;
19800;SDS011;10060;48.274;12.214;2023-12-28T01:44:05;14.33;;;9.70;;
19800;SDS011;10060;48.274;12.214;2023-12-28T01:47:09;15.00;;;10.67;;
19800;SDS011;10060;48.274;12.214;2023-12-28T01:50:11;13.37;;;9.10;;
19800;SDS011;10060;48.274;12.214;2023-12-28T01:53:13;17.00;;;10.53;;
19800;SDS011;10060;48.274;12.214;2023-12-28T01:56:16;15.63;;;10.40;;
19800;SDS011;10060;48.274;12.214;2023-12-28T01:59:19;13.10;;;9.87;;
19800;SDS011;10060;48.274;12.214;2023-12-28T02:02:22;17.50;;;9.67;;
19800;SDS011;10060;48.274;12.214;2023-12-28T02:05:24;15.57;;;10.03;;
19800;SDS011;10060;48.274;12.214;2023-12-28T02:08:27;16.13;;;10.63;;
19800;SDS011;10060;48.274;12.214;2023-12-28T02:11:29;13.40;;;8.97;;
19800;SDS011;10060;48.274;12.214;2023-12-28T02:14:31;16.17;;;10.63;;
19800;SDS011;10060;48.274;12.214;2023-12-28T02:17:36;16.87;;;10.63;;
19800;SDS011;10060;48.274;12.214;2023-12-28T02:20:39;16.20;;;10.43;;
19800;SDS011;10060;48.274;12.214;2023-12-28T02:23:45;16.67;;;11.40;;
19800;SDS011;10060;48.274;12.214;2023-12-28T02:26:49;14.90;;;10.07;;
19800;SDS011;10060;48.274;12.214;2023-12-28T02:29:51;12.63;;;9.70;;
19800;SDS011;10060;48.274;12.214;2023-12-28T02:32:55;13.03;;;9.57;;
19800;SDS011;10060;48.274;12.214;2023-12-28T02:35:58;12.63;;;10.23;;
19800;SDS011;10060;48.274;12.214;2023-12-28T02:39:04;14.53;;;11.13;;
19800;SDS011;10060;48.274;12.214;2023-12-28T02:42:09;14.77;;;10.87;;
19800;SDS011;10060;48.274;12.214;2023-12-28T02:45:11;16.10;;;11.13;;
19800;SDS011;10060;48.274;12.214;2023-12-28T02:48:13;13.50;;;10.30;;
19800;SDS011;10060;48.274;12.214;2023-12-28T02:51:15;11.93;;;9.50;;
19800;SDS011;10060;48.274;12.214;2023-12-28T02:54:18;14.83;;;9.80;;
19800;SDS011;10060;48.274;12.214;2023-12-28T02:57:21;15.47;;;9.40;;
19800;SDS011;10060;48.274;12.214;2023-12-28T03:00:23;15.93;;;9.43;;
19800;SDS011;10060;48.274;12.214;2023-12-28T03:03:25;12.83;;;9.30;;
19800;SDS011;10060;48.274;12.214;2023-12-28T03:06:28;17.50;;;11.00;;
19800;SDS011;10060;48.274;12.214;2023-12-28T03:09:30;15.80;;;10.93;;
19800;SDS011;10060;48.274;12.214;2023-12-28T03:12:34;13.87;;;9.80;;
19800;SDS011;10060;48.274;12.214;2023-12-28T03:15:36;14.23;;;8.80;;
19800;SDS011;10060;48.274;12.214;2023-12-28T03:18:38;13.37;;;9.50;;
19800;SDS011;10060;48.274;12.214;2023-12-28T03:21:40;13.07;;;9.87;;
19800;SDS011;10060;48.274;12.214;2023-12-28T03:24:43;14.53;;;10.23;;
19800;SDS011;10060;48.274;12.214;2023-12-28T03:27:47;15.87;;;10.90;;
19800;SDS011;10060;48.274;12.214;2023-12-28T03:30:49;16.80;;;11.40;;
19800;SDS011;10060;48.274;12.214;2023-12-28T03:33:51;17.03;;;11.43;;
19800;SDS011;10060;48.274;12.214;2023-12-28T03:36:53;13.87;;;10.83;;
19800;SDS011;10060;48.274;12.214;2023-12-28T03:39:55;15.53;;;10.63;;
19800;SDS011;10060;48.274;12.214;2023-12-28T03:42:59;18.23;;;10.30;;
19800;SDS011;10060;48.274;12.214;2023-12-28T03:46:01;11.17;;;9.23;;
19800;SDS011;10060;48.274;12.214;2023-12-28T03:49:03;11.07;;;7.87;;
19800;SDS011;10060;48.274;12.214;2023-12-28T03:52:05;15.20;;;9.37;;
19800;SDS011;10060;48.274;12.214;2023-12-28T03:55:07;12.07;;;9.60;;
19800;SDS011;10060;48.274;12.214;2023-12-28T03:58:11;13.47;;;9.37;;
19800;SDS011;10060;48.274;12.214;2023-12-28T04:01:13;16.73;;;10.60;;
19800;SDS011;10060;48.274;12.214;2023-12-28T04:04:15;16.80;;;10.17;;
19800;SDS011;10060;48.274;12.214;2023-12-28T04:07:18;14.70;;;10.27;;
19800;SDS011;10060;48.274;12.214;2023-12-28T04:10:28;13.97;;;9.93;;
19800;SDS011;10060;48.274;12.214;2023-12-28T04:13:32;14.93;;;10.53;;
19800;SDS011;10060;48.274;12.214;2023-12-28T04:16:34;13.20;;;10.07;;
19800;SDS011;10060;48.274;12.214;2023-12-28T04:19:36;14.90;;;10.13;;
19800;SDS011;10060;48.274;12.214;2023-12-28T04:22:39;16.10;;;11.10;;
19800;SDS011;10060;48.274;12.214;2023-12-28T04:25:43;14.43;;;10.90;;
19800;SDS011;10060;48.274;12.214;2023-12-28T04:28:46;15.87;;;10.50;;
19800;SDS011;10060;48.274;12.214;2023-12-28T04:31:48;14.97;;;10.07;;
19800;SDS011;10060;48.274;12.214;2023-12-28T04:34:50;13.33;;;9.80;;
19800;SDS011;10060;48.274;12.214;2023-12-28T04:37:53;11.70;;;8.67;;
19800;SDS011;10060;48.274;12.214;2023-12-28T04:40:56;9.33;;;7.43;;
19800;SDS011;10060;48.274;12.214;2023-12-28T04:43:59;12.67;;;7.47;;
19800;SDS011;10060;48.274;12.214;2023-12-28T04:47:01;12.07;;;9.20;;
19800;SDS011;10060;48.274;12.214;2023-12-28T04:50:04;15.13;;;10.30;;
19800;SDS011;10060;48.274;12.214;2023-12-28T04:53:06;14.73;;;10.83;;
19800;SDS011;10060;48.274;12.214;2023-12-28T04:56:08;14.27;;;10.53;;
19800;SDS011;10060;48.274;12.214;2023-12-28T04:59:12;17.57;;;11.20;;
19800;SDS011;10060;48.274;12.214;2023-12-28T05:02:14;14.23;;;10.77;;
19800;SDS011;10060;48.274;12.214;2023-12-28T05:05:16;16.33;;;11.00;;
19800;SDS011;10060;48.274;12.214;2023-12-28T05:08:18;11.83;;;8.00;;
19800;SDS011;10060;48.274;12.214;2023-12-28T05:11:20;10.17;;;7.60;;
19800;SDS011;10060;48.274;12.214;2023-12-28T05:14:24;11.80;;;9.00;;
19800;SDS011;10060;48.274;12.214;2023-12-28T05:17:26;15.67;;;11.07;;
19800;SDS011;10060;48.274;12.214;2023-12-28T05:20:28;14.37;;;11.17;;
19800;SDS011;10060;48.274;12.214;2023-12-28T05:23:30;15.50;;;11.23;;
19800;SDS011;10060;48.274;12.214;2023-12-28T05:26:32;19.03;;;12.23;;
19800;SDS011;10060;48.274;12.214;2023-12-28T05:29:36;14.30;;;10.80;;
19800;SDS011;10060;48.274;12.214;2023-12-28T05:32:38;16.40;;;11.47;;
19800;SDS011;10060;48.274;12.214;2023-12-28T05:35:40;17.27;;;11.87;;
19800;SDS011;10060;48.274;12.214;2023-12-28T05:38:42;16.23;;;10.93;;
19800;SDS011;10060;48.274;12.214;2023-12-28T05:41:44;15.87;;;9.90;;
19800;SDS011;10060;48.274;12.214;2023-12-28T05:44:49;14.23;;;10.27;;
19800;SDS011;10060;48.274;12.214;2023-12-28T05:47:51;12.67;;;9.73;;
19800;SDS011;10060;48.274;12.214;2023-12-28T05:50:53;13.33;;;9.07;;
19800;SDS011;10060;48.274;12.214;2023-12-28T05:53:55;16.10;;;9.03;;
19800;SDS011;10060;48.274;12.214;2023-12-28T05:56:57;10.10;;;7.33;;
19800;SDS011;10060;48.274;12.214;2023-12-28T06:00:01;11.57;;;8.10;;
19800;SDS011;10060;48.274;12.214;2023-12-28T06:03:04;12.00;;;9.53;;
19800;SDS011;10060;48.274;12.214;2023-12-28T06:06:06;12.40;;;8.77;;
19800;SDS011;10060;48.274;12.214;2023-12-28T06:09:09;14.57;;;9.23;;
19800;SDS011;10060;48.274;12.214;2023-12-28T06:12:12;13.07;;;9.57;;
19800;SDS011;10060;48.274;12.214;2023-12-28T06:15:16;14.13;;;9.93;;
19800;SDS011;10060;48.274;12.214;2023-12-28T06:18:18;15.73;;;10.87;;
19800;SDS011;10060;48.274;12.214;2023-12-28T06:21:20;13.23;;;9.77;;
19800;SDS011;10060;48.274;12.214;2023-12-28T06:24:22;17.80;;;10.90;;
19800;SDS011;10060;48.274;12.214;2023-12-28T06:27:24;15.60;;;11.07;;
19800;SDS011;10060;48.274;12.214;2023-12-28T06:30:28;11.93;;;9.57;;
19800;SDS011;10060;48.274;12.214;2023-12-28T06:33:30;12.70;;;9.83;;
19800;SDS011;10060;48.274;12.214;2023-12-28T06:36:32;14.17;;;12.47;;
19800;SDS011;10060;48.274;12.214;2023-12-28T06:39:34;12.57;;;9.17;;
19800;SDS011;10060;48.274;12.214;2023-12-28T06:42:37;12.30;;;9.23;;
19800;SDS011;10060;48.274;12.214;2023-12-28T06:45:40;12.83;;;8.97;;
19800;SDS011;10060;48.274;12.214;2023-12-28T06:48:42;10.13;;;8.23;;
19800;SDS011;10060;48.274;12.214;2023-12-28T06:51:44;12.40;;;8.73;;
19800;SDS011;10060;48.274;12.214;2023-12-28T06:54:46;10.83;;;8.40;;
19800;SDS011;10060;48.274;12.214;2023-12-28T06:57:49;11.30;;;7.60;;
19800;SDS011;10060;48.274;12.214;2023-12-28T07:00:52;12.37;;;8.07;;
19800;SDS011;10060;48.274;12.214;2023-12-28T07:03:57;10.90;;;8.23;;
19800;SDS011;10060;48.274;12.214;2023-12-28T07:06:59;11.83;;;7.67;;
19800;SDS011;10060;48.274;12.214;2023-12-28T07:10:02;11.40;;;7.17;;
19800;SDS011;10060;48.274;12.214;2023-12-28T07:13:04;8.63;;;6.83;;
19800;SDS011;10060;48.274;12.214;2023-12-28T07:16:07;13.17;;;7.50;;
19800;SDS011;10060;48.274;12.214;2023-12-28T07:19:09;8.67;;;6.80;;
19800;SDS011;10060;48.274;12.214;2023-12-28T07:22:12;8.60;;;6.80;;
19800;SDS011;10060;48.274;12.214;2023-12-28T07:25:14;9.23;;;6.47;;
19800;SDS011;10060;48.274;12.214;2023-12-28T07:28:16;9.33;;;6.70;;
19800;SDS011;10060;48.274;12.214;2023-12-28T07:31:26;7.67;;;6.20;;
19800;SDS011;10060;48.274;12.214;2023-12-28T07:34:28;8.80;;;5.93;;
19800;SDS011;10060;48.274;12.214;2023-12-28T07:37:31;8.30;;;6.23;;
19800;SDS011;10060;48.274;12.214;2023-12-28T07:40:35;8.27;;;6.47;;
19800;SDS011;10060;48.274;12.214;2023-12-28T07:43:37;9.87;;;6.30;;
19800;SDS011;10060;48.274;12.214;2023-12-28T07:46:41;6.87;;;5.37;;
19800;SDS011;10060;48.274;12.214;2023-12-28T07:49:43;8.23;;;6.10;;
19800;SDS011;10060;48.274;12.214;2023-12-28T07:52:45;7.97;;;6.43;;
19800;SDS011;10060;48.274;12.214;2023-12-28T07:55:47;8.80;;;6.33;;
19800;SDS011;10060;48.274;12.214;2023-12-28T07:58:49;6.67;;;5.33;;
19800;SDS011;10060;48.274;12.214;2023-12-28T08:01:53;12.57;;;8.23;;
19800;SDS011;10060;48.274;12.214;2023-12-28T08:04:55;10.03;;;7.73;;
19800;SDS011;10060;48.274;12.214;2023-12-28T08:07:57;13.33;;;9.27;;
19800;SDS011;10060;48.274;12.214;2023-12-28T08:10:59;13.83;;;7.33;;
19800;SDS011;10060;48.274;12.214;2023-12-28T08:14:01;9.77;;;7.50;;
19800;SDS011;10060;48.274;12.214;2023-12-28T08:17:05;15.77;;;8.80;;
19800;SDS011;10060;48.274;12.214;2023-12-28T08:20:08;13.50;;;8.40;;
19800;SDS011;10060;48.274;12.214;2023-12-28T08:23:10;9.10;;;6.17;;
19800;SDS011;10060;48.274;12.214;2023-12-28T08:26:12;13.77;;;8.40;;
19800;SDS011;10060;48.274;12.214;2023-12-28T08:29:14;14.10;;;8.97;;
19800;SDS011;10060;48.274;12.214;2023-12-28T08:32:19;10.70;;;8.53;;
19800;SDS011;10060;48.274;12.214;2023-12-28T08:35:21;11.27;;;8.43;;
19800;SDS011;10060;48.274;12.214;2023-12-28T08:38:23;11.97;;;7.93;;
19800;SDS011;10060;48.274;12.214;2023-12-28T08:41:25;9.60;;;7.40;;
19800;SDS011;10060;48.274;12.214;2023-12-28T08:44:28;9.83;;;7.23;;
19800;SDS011;10060;48.274;12.214;2023-12-28T08:47:31;10.63;;;7.77;;
19800;SDS011;10060;48.274;12.214;2023-12-28T08:50:33;11.73;;;8.07;;
19800;SDS011;10060;48.274;12.214;2023-12-28T08:53:35;11.67;;;7.47;;
19800;SDS011;10060;48.274;12.214;2023-12-28T08:56:37;10.17;;;6.97;;
19800;SDS011;10060;48.274;12.214;2023-12-28T08:59:40;10.77;;;7.93;;
19800;SDS011;10060;48.274;12.214;2023-12-28T09:02:43;12.40;;;7.40;;
19800;SDS011;10060;48.274;12.214;2023-12-28T09:05:45;12.17;;;8.13;;
19800;SDS011;10060;48.274;12.214;2023-12-28T09:08:48;12.73;;;7.37;;
19800;SDS011;10060;48.274;12.214;2023-12-28T09:11:50;9.07;;;7.20;;
19800;SDS011;10060;48.274;12.214;2023-12-28T09:14:52;12.37;;;7.07;;
19800;SDS011;10060;48.274;12.214;2023-12-28T09:17:56;9.27;;;7.20;;
19800;SDS011;10060;48.274;12.214;2023-12-28T09:20:58;9.77;;;7.33;;
19800;SDS011;10060;48.274;12.214;2023-12-28T09:24:01;10.93;;;6.93;;
19800;SDS011;10060;48.274;12.214;2023-12-28T09:27:03;10.00;;;7.67;;
19800;SDS011;10060;48.274;12.214;2023-12-28T09:30:05;11.47;;;8.07;;
19800;SDS011;10060;48.274;12.214;2023-12-28T09:33:09;10.90;;;8.00;;
19800;SDS011;10060;48.274;12.214;2023-12-28T09:36:11;10.90;;;7.30;;
19800;SDS011;10060;48.274;12.214;2023-12-28T09:39:13;9.20;;;6.80;;
19800;SDS011;10060;48.274;12.214;2023-12-28T09:42:17;8.63;;;7.10;;
19800;SDS011;10060;48.274;12.214;2023-12-28T09:45:22;7.47;;;5.63;;
19800;SDS011;10060;48.274;12.214;2023-12-28T09:48:25;8.23;;;6.20;;
19800;SDS011;10060;48.274;12.214;2023-12-28T09:51:28;8.07;;;5.87;;
19800;SDS011;10060;48.274;12.214;2023-12-28T09:54:30;8.10;;;5.70;;
19800;SDS011;10060;48.274;12.214;2023-12-28T09:57:32;7.97;;;5.50;;
19800;SDS011;10060;48.274;12.214;2023-12-28T10:00:35;6.83;;;5.40;;
19800;SDS011;10060;48.274;12.214;2023-12-28T10:03:38;8.20;;;5.40;;
19800;SDS011;10060;48.274;12.214;2023-12-28T10:06:41;10.07;;;5.80;;
19800;SDS011;10060;48.274;12.214;2023-12-28T10:09:43;11.17;;;6.23;;
19800;SDS011;10060;48.274;12.214;2023-12-28T10:12:45;8.60;;;6.33;;
19800;SDS011;10060;48.274;12.214;2023-12-28T10:15:48;7.73;;;6.07;;
19800;SDS011;10060;48.274;12.214;2023-12-28T10:18:51;8.20;;;6.30;;
19800;SDS011;10060;48.274;12.214;2023-12-28T10:21:54;6.57;;;5.63;;
19800;SDS011;10060;48.274;12.214;2023-12-28T10:24:56;9.53;;;6.53;;
19800;SDS011;10060;48.274;12.214;2023-12-28T10:28:03;10.00;;;7.30;;
19800;SDS011;10060;48.274;12.214;2023-12-28T10:31:05;14.80;;;7.80;;
19800;SDS011;10060;48.274;12.214;2023-12-28T10:34:09;11.63;;;7.70;;
19800;SDS011;10060;48.274;12.214;2023-12-28T10:37:11;11.50;;;7.30;;
19800;SDS011;10060;48.274;12.214;2023-12-28T10:40:14;13.10;;;8.30;;
19800;SDS011;10060;48.274;12.214;2023-12-28T10:43:16;16.00;;;8.57;;
19800;SDS011;10060;48.274;12.214;2023-12-28T10:46:21;12.80;;;8.83;;
19800;SDS011;10060;48.274;12.214;2023-12-28T10:49:25;13.17;;;8.70;;
19800;SDS011;10060;48.274;12.214;2023-12-28T10:52:27;14.10;;;8.40;;
19800;SDS011;10060;48.274;12.214;2023-12-28T10:55:33;12.93;;;8.10;;
19800;SDS011;10060;48.274;12.214;2023-12-28T10:58:39;11.37;;;7.93;;
19800;SDS011;10060;48.274;12.214;2023-12-28T11:01:43;12.87;;;8.07;;
19800;SDS011;10060;48.274;12.214;2023-12-28T11:04:50;11.13;;;7.13;;
19800;SDS011;10060;48.274;12.214;2023-12-28T11:07:52;9.03;;;6.57;;
19800;SDS011;10060;48.274;12.214;2023-12-28T11:10:58;8.23;;;6.20;;
19800;SDS011;10060;48.274;12.214;2023-12-28T11:14:01;9.57;;;6.50;;
19800;SDS011;10060;48.274;12.214;2023-12-28T11:17:04;10.87;;;6.70;;
19800;SDS011;10060;48.274;12.214;2023-12-28T11:20:08;10.57;;;7.33;;
19800;SDS011;10060;48.274;12.214;2023-12-28T11:23:10;11.27;;;6.97;;
19800;SDS011;10060;48.274;12.214;2023-12-28T11:26:16;14.07;;;7.33;;
19800;SDS011;10060;48.274;12.214;2023-12-28T11:29:19;12.47;;;7.00;;
19800;SDS011;10060;48.274;12.214;2023-12-28T11:32:21;11.43;;;6.73;;
19800;SDS011;10060;48.274;12.214;2023-12-28T11:35:25;8.10;;;6.30;;
19800;SDS011;10060;48.274;12.214;2023-12-28T11:38:33;10.97;;;7.63;;
19800;SDS011;10060;48.274;12.214;2023-12-28T11:41:35;11.43;;;7.07;;
19800;SDS011;10060;48.274;12.214;2023-12-28T11:44:38;8.93;;;6.10;;
19800;SDS011;10060;48.274;12.214;2023-12-28T11:47:41;9.63;;;6.43;;
19800;SDS011;10060;48.274;12.214;2023-12-28T11:50:45;8.70;;;6.97;;
19800;SDS011;10060;48.274;12.214;2023-12-28T11:53:47;7.50;;;6.00;;
19800;SDS011;10060;48.274;12.214;2023-12-28T11:56:50;7.33;;;6.10;;
19800;SDS011;10060;48.274;12.214;2023-12-28T11:59:53;11.23;;;6.33;;
19800;SDS011;10060;48.274;12.214;2023-12-28T12:02:55;9.03;;;6.40;;
19800;SDS011;10060;48.274;12.214;2023-12-28T12:05:58;10.07;;;6.97;;
19800;SDS011;10060;48.274;12.214;2023-12-28T12:09:01;10.00;;;6.30;;
19800;SDS011;10060;48.274;12.214;2023-12-28T12:12:04;10.33;;;6.73;;
19800;SDS011;10060;48.274;12.214;2023-12-28T12:15:07;9.40;;;6.17;;
19800;SDS011;10060;48.274;12.214;2023-12-28T12:18:09;8.83;;;6.50;;
19800;SDS011;10060;48.274;12.214;2023-12-28T12:21:12;7.73;;;4.97;;
19800;SDS011;10060;48.274;12.214;2023-12-28T12:24:16;6.37;;;5.33;;
19800;SDS011;10060;48.274;12.214;2023-12-28T12:27:18;9.20;;;5.43;;
19800;SDS011;10060;48.274;12.214;2023-12-28T12:30:21;12.50;;;6.40;;
19800;SDS011;10060;48.274;12.214;2023-12-28T12:33:23;8.57;;;5.73;;
19800;SDS011;10060;48.274;12.214;2023-12-28T12:36:27;7.10;;;5.30;;
19800;SDS011;10060;48.274;12.214;2023-12-28T12:39:29;7.33;;;5.37;;
19800;SDS011;10060;48.274;12.214;2023-12-28T12:42:32;6.57;;;4.53;;
19800;SDS011;10060;48.274;12.214;2023-12-28T12:45:34;5.87;;;4.57;;
19800;SDS011;10060;48.274;12.214;2023-12-28T12:48:37;7.10;;;3.20;;
19800;SDS011;10060;48.274;12.214;2023-12-28T12:51:42;6.87;;;4.67;;
19800;SDS011;10060;48.274;12.214;2023-12-28T12:54:44;6.53;;;3.40;;
19800;SDS011;10060;48.274;12.214;2023-12-28T12:57:54;5.77;;;3.43;;
19800;SDS011;10060;48.274;12.214;2023-12-28T13:00:56;2.77;;;2.50;;
19800;SDS011;10060;48.274;12.214;2023-12-28T13:03:59;2.37;;;2.17;;
19800;SDS011;10060;48.274;12.214;2023-12-28T13:07:03;2.87;;;2.20;;
19800;SDS011;10060;48.274;12.214;2023-12-28T13:10:06;2.30;;;1.83;;
19800;SDS011;10060;48.274;12.214;2023-12-28T13:13:08;2.37;;;1.97;;
19800;SDS011;10060;48.274;12.214;2023-12-28T13:16:10;3.87;;;2.10;;
19800;SDS011;10060;48.274;12.214;2023-12-28T13:19:12;3.10;;;1.93;;
19800;SDS011;10060;48.274;12.214;2023-12-28T13:22:16;2.20;;;2.00;;
19800;SDS011;10060;48.274;12.214;2023-12-28T13:25:18;2.83;;;2.47;;
19800;SDS011;10060;48.274;12.214;2023-12-28T13:28:20;2.83;;;2.30;;
19800;SDS011;10060;48.274;12.214;2023-12-28T13:31:22;2.60;;;2.27;;
19800;SDS011;10060;48.274;12.214;2023-12-28T13:34:26;2.57;;;2.23;;
19800;SDS011;10060;48.274;12.214;2023-12-28T13:37:30;2.50;;;2.30;;
19800;SDS011;10060;48.274;12.214;2023-12-28T13:40:32;4.63;;;3.47;;
19800;SDS011;10060;48.274;12.214;2023-12-28T13:43:34;4.40;;;3.13;;
19800;SDS011;10060;48.274;12.214;2023-12-28T13:46:36;5.33;;;4.10;;
19800;SDS011;10060;48.274;12.214;2023-12-28T13:49:39;4.90;;;3.70;;
19800;SDS011;10060;48.274;12.214;2023-12-28T13:52:42;5.00;;;3.30;;
19800;SDS011;10060;48.274;12.214;2023-12-28T13:55:44;4.93;;;3.13;;
19800;SDS011;10060;48.274;12.214;2023-12-28T13:58:46;5.37;;;3.50;;
19800;SDS011;10060;48.274;12.214;2023-12-28T14:01:49;5.47;;;3.47;;
19800;SDS011;10060;48.274;12.214;2023-12-28T14:04:51;3.87;;;2.83;;
19800;SDS011;10060;48.274;12.214;2023-12-28T14:07:58;3.43;;;3.07;;
19800;SDS011;10060;48.274;12.214;2023-12-28T14:11:01;3.43;;;2.60;;
19800;SDS011;10060;48.274;12.214;2023-12-28T14:14:03;2.80;;;2.40;;
19800;SDS011;10060;48.274;12.214;2023-12-28T14:17:05;3.73;;;2.57;;
19800;SDS011;10060;48.274;12.214;2023-12-28T14:20:08;5.40;;;2.70;;
19800;SDS011;10060;48.274;12.214;2023-12-28T14:23:13;4.90;;;3.00;;
19800;SDS011;10060;48.274;12.214;2023-12-28T14:26:16;3.13;;;2.63;;
19800;SDS011;10060;48.274;12.214;2023-12-28T14:29:18;4.23;;;2.53;;
19800;SDS011;10060;48.274;12.214;2023-12-28T14:32:21;3.03;;;2.27;;
19800;SDS011;10060;48.274;12.214;2023-12-28T14:35:23;6.43;;;2.90;;
19800;SDS011;10060;48.274;12.214;2023-12-28T14:38:27;3.00;;;2.57;;
19800;SDS011;10060;48.274;12.214;2023-12-28T14:41:29;4.87;;;4.37;;
19800;SDS011;10060;48.274;12.214;2023-12-28T14:44:31;3.70;;;2.73;;
19800;SDS011;10060;48.274;12.214;2023-12-28T14:47:33;4.13;;;3.30;;
19800;SDS011;10060;48.274;12.214;2023-12-28T14:50:35;5.17;;;3.30;;
19800;SDS011;10060;48.274;12.214;2023-12-28T14:53:39;6.47;;;3.40;;
19800;SDS011;10060;48.274;12.214;2023-12-28T14:56:41;3.60;;;2.60;;
19800;SDS011;10060;48.274;12.214;2023-12-28T14:59:43;3.90;;;3.07;;
19800;SDS011;10060;48.274;12.214;2023-12-28T15:02:45;4.37;;;3.63;;
19800;SDS011;10060;48.274;12.214;2023-12-28T15:05:47;4.93;;;3.20;;
19800;SDS011;10060;48.274;12.214;2023-12-28T15:08:51;4.33;;;3.27;;
19800;SDS011;10060;48.274;12.214;2023-12-28T15:11:53;3.53;;;2.53;;
19800;SDS011;10060;48.274;12.214;2023-12-28T15:14:55;4.80;;;2.70;;
19800;SDS011;10060;48.274;12.214;2023-12-28T15:17:58;3.10;;;2.60;;
19800;SDS011;10060;48.274;12.214;2023-12-28T15:21:00;4.87;;;3.00;;
19800;SDS011;10060;48.274;12.214;2023-12-28T15:24:05;4.03;;;2.87;;
19800;SDS011;10060;48.274;12.214;2023-12-28T15:27:07;3.47;;;2.70;;
19800;SDS011;10060;48.274;12.214;2023-12-28T15:30:10;3.67;;;2.70;;
19800;SDS011;10060;48.274;12.214;2023-12-28T15:33:13;3.47;;;2.70;;
19800;SDS011;10060;48.274;12.214;2023-12-28T15:36:15;3.43;;;2.80;;
19800;SDS011;10060;48.274;12.214;2023-12-28T15:39:18;3.90;;;2.80;;
19800;SDS011;10060;48.274;12.214;2023-12-28T15:42:20;3.57;;;3.20;;
19800;SDS011;10060;48.274;12.214;2023-12-28T15:45:23;4.47;;;2.97;;
19800;SDS011;10060;48.274;12.214;2023-12-28T15:48:26;5.63;;;3.77;;
19800;SDS011;10060;48.274;12.214;2023-12-28T15:51:28;5.03;;;3.40;;
19800;SDS011;10060;48.274;12.214;2023-12-28T15:54:31;5.80;;;3.43;;
19800;SDS011;10060;48.274;12.214;2023-12-28T15:57:34;5.97;;;3.10;;
19800;SDS011;10060;48.274;12.214;2023-12-28T16:00:36;6.77;;;2.90;;
19800;SDS011;10060;48.274;12.214;2023-12-28T16:03:38;5.20;;;3.20;;
19800;SDS011;10060;48.274;12.214;2023-12-28T16:06:40;7.70;;;3.63;;
19800;SDS011;10060;48.274;12.214;2023-12-28T16:09:44;4.67;;;3.17;;
19800;SDS011;10060;48.274;12.214;2023-12-28T16:12:46;5.47;;;3.50;;
19800;SDS011;10060;48.274;12.214;2023-12-28T16:15:48;5.17;;;3.73;;
19800;SDS011;10060;48.274;12.214;2023-12-28T16:18:51;5.23;;;3.30;;
19800;SDS011;10060;48.274;12.214;2023-12-28T16:21:53;4.73;;;3.67;;
19800;SDS011;10060;48.274;12.214;2023-12-28T16:24:57;7.23;;;3.43;;
19800;SDS011;10060;48.274;12.214;2023-12-28T16:28:01;4.50;;;3.40;;
19800;SDS011;10060;48.274;12.214;2023-12-28T16:31:04;5.13;;;3.37;;
19800;SDS011;10060;48.274;12.214;2023-12-28T16:34:06;3.73;;;3.10;;
19800;SDS011;10060;48.274;12.214;2023-12-28T16:37:08;3.90;;;3.00;;
19800;SDS011;10060;48.274;12.214;2023-12-28T16:40:12;7.87;;;4.57;;
19800;SDS011;10060;48.274;12.214;2023-12-28T16:43:14;4.00;;;2.83;;
19800;SDS011;10060;48.274;12.214;2023-12-28T16:46:16;3.70;;;3.20;;
19800;SDS011;10060;48.274;12.214;2023-12-28T16:49:19;5.73;;;3.73;;
19800;SDS011;10060;48.274;12.214;2023-12-28T16:52:21;3.93;;;3.30;;
19800;SDS011;10060;48.274;12.214;2023-12-28T16:55:24;6.17;;;3.30;;
19800;SDS011;10060;48.274;12.214;2023-12-28T16:58:26;10.73;;;5.47;;
19800;SDS011;10060;48.274;12.214;2023-12-28T17:01:29;6.83;;;3.97;;
19800;SDS011;10060;48.274;12.214;2023-12-28T17:04:31;7.63;;;4.00;;
19800;SDS011;10060;48.274;12.214;2023-12-28T17:07:33;9.83;;;4.30;;
19800;SDS011;10060;48.274;12.214;2023-12-28T17:10:37;5.60;;;3.63;;
19800;SDS011;10060;48.274;12.214;2023-12-28T17:13:40;5.27;;;4.07;;
19800;SDS011;10060;48.274;12.214;2023-12-28T17:16:43;6.50;;;4.30;;
19800;SDS011;10060;48.274;12.214;2023-12-28T17:19:45;8.73;;;4.30;;
19800;SDS011;10060;48.274;12.214;2023-12-28T17:22:50;8.20;;;4.20;;
19800;SDS011;10060;48.274;12.214;2023-12-28T17:25:56;5.40;;;3.63;;
19800;SDS011;10060;48.274;12.214;2023-12-28T17:29:02;6.60;;;3.90;;
19800;SDS011;10060;48.274;12.214;2023-12-28T17:32:06;4.43;;;3.60;;
19800;SDS011;10060;48.274;12.214;2023-12-28T17:35:10;7.23;;;4.60;;
19800;SDS011;10060;48.274;12.214;2023-12-28T17:38:12;6.03;;;4.40;;
19800;SDS011;10060;48.274;12.214;2023-12-28T17:41:15;6.27;;;4.40;;
19800;SDS011;10060;48.274;12.214;2023-12-28T17:44:23;8.30;;;4.80;;
19800;SDS011;10060;48.274;12.214;2023-12-28T17:47:26;7.47;;;4.50;;
19800;SDS011;10060;48.274;12.214;2023-12-28T17:50:28;8.73;;;5.80;;